sensor_id;sensor_type;location;lat;lon;timestamp;temperature;humidity
39849;DHT22;25518;47.878;15.914;2022-09-20T14:18:15;13.40;99.90
39849;DHT22;25518;47.878;15.914;2022-09-20T14:20:43;13.90;99.90
39849;DHT22;25518;47.878;15.914;2022-09-20T14:23:27;14.30;99.90
39849;DHT22;25518;47.878;15.914;2022-09-20T14:28:42;14.80;99.90
39849;DHT22;25518;47.878;15.914;2022-09-20T14:31:14;14.60;99.90
39849;DHT22;25518;47.878;15.914;2022-09-20T14:33:45;14.50;99.90
39849;DHT22;25518;47.878;15.914;2022-09-20T14:36:14;13.70;99.90
39849;DHT22;25518;47.878;15.914;2022-09-20T14:38:43;13.00;99.90
39849;DHT22;25518;47.878;15.914;2022-09-20T14:41:11;12.30;99.90
39849;DHT22;25518;47.878;15.914;2022-09-20T14:43:39;11.80;99.90
39849;DHT22;25518;47.878;15.914;2022-09-20T14:46:30;11.80;99.90
39849;DHT22;25518;47.878;15.914;2022-09-20T14:49:29;11.70;99.90
39849;DHT22;25518;47.878;15.914;2022-09-20T14:52:34;11.60;99.90
39849;DHT22;25518;47.878;15.914;2022-09-20T14:55:16;11.50;99.90
39849;DHT22;25518;47.878;15.914;2022-09-20T14:57:44;11.40;99.90
39849;DHT22;25518;47.878;15.914;2022-09-20T15:00:13;11.20;99.90
39849;DHT22;25518;47.878;15.914;2022-09-20T15:02:42;11.10;99.90
39849;DHT22;25518;47.878;15.914;2022-09-20T15:05:21;11.10;99.90
39849;DHT22;25518;47.878;15.914;2022-09-20T15:07:53;11.10;99.90
39849;DHT22;25518;47.878;15.914;2022-09-20T15:10:20;11.10;99.90
39849;DHT22;25518;47.878;15.914;2022-09-20T15:12:46;11.20;99.90
39849;DHT22;25518;47.878;15.914;2022-09-20T15:15:14;11.10;99.90
39849;DHT22;25518;47.878;15.914;2022-09-20T15:17:41;11.10;99.90
39849;DHT22;25518;47.878;15.914;2022-09-20T15:20:17;11.10;99.90
39849;DHT22;25518;47.878;15.914;2022-09-20T15:22:47;10.90;99.90
39849;DHT22;25518;47.878;15.914;2022-09-20T15:25:17;10.80;99.90
39849;DHT22;25518;47.878;15.914;2022-09-20T15:27:45;10.60;99.90
39849;DHT22;25518;47.878;15.914;2022-09-20T15:30:14;10.50;99.90
39849;DHT22;25518;47.878;15.914;2022-09-20T15:32:43;10.30;99.90
39849;DHT22;25518;47.878;15.914;2022-09-20T15:35:10;10.10;99.90
39849;DHT22;25518;47.878;15.914;2022-09-20T15:37:36;10.00;99.90
39849;DHT22;25518;47.878;15.914;2022-09-20T15:40:04;9.80;99.90
39849;DHT22;25518;47.878;15.914;2022-09-20T15:42:31;9.60;99.90
39849;DHT22;25518;47.878;15.914;2022-09-20T15:44:57;9.30;99.90
39849;DHT22;25518;47.878;15.914;2022-09-20T15:47:23;9.20;99.90
39849;DHT22;25518;47.878;15.914;2022-09-20T15:49:49;9.20;99.90
39849;DHT22;25518;47.878;15.914;2022-09-20T15:52:15;9.20;99.90
39849;DHT22;25518;47.878;15.914;2022-09-20T15:54:42;9.10;99.90
39849;DHT22;25518;47.878;15.914;2022-09-20T15:57:08;9.10;99.90
39849;DHT22;25518;47.878;15.914;2022-09-20T15:59:34;9.00;99.90
39849;DHT22;25518;47.878;15.914;2022-09-20T16:02:00;8.90;99.90
39849;DHT22;25518;47.878;15.914;2022-09-20T16:04:27;8.70;99.90
39849;DHT22;25518;47.878;15.914;2022-09-20T16:06:53;8.70;99.90
39849;DHT22;25518;47.878;15.914;2022-09-20T16:09:19;8.70;99.90
39849;DHT22;25518;47.878;15.914;2022-09-20T16:11:46;8.70;99.90
39849;DHT22;25518;47.878;15.914;2022-09-20T16:14:13;8.70;99.90
39849;DHT22;25518;47.878;15.914;2022-09-20T16:16:39;8.70;99.90
39849;DHT22;25518;47.878;15.914;2022-09-20T16:19:05;8.60;99.90
39849;DHT22;25518;47.878;15.914;2022-09-20T16:21:47;8.70;99.90
39849;DHT22;25518;47.878;15.914;2022-09-20T16:24:16;8.60;99.90
39849;DHT22;25518;47.878;15.914;2022-09-20T16:26:42;8.50;99.90
39849;DHT22;25518;47.878;15.914;2022-09-20T16:29:09;8.50;99.90
39849;DHT22;25518;47.878;15.914;2022-09-20T16:31:42;8.50;99.90
39849;DHT22;25518;47.878;15.914;2022-09-20T16:36:39;8.50;99.90
39849;DHT22;25518;47.878;15.914;2022-09-20T16:39:07;8.50;99.90
39849;DHT22;25518;47.878;15.914;2022-09-20T16:41:33;8.30;99.90
39849;DHT22;25518;47.878;15.914;2022-09-20T16:44:01;8.10;99.90
39849;DHT22;25518;47.878;15.914;2022-09-20T16:46:28;8.00;99.90
39849;DHT22;25518;47.878;15.914;2022-09-20T16:48:56;8.00;99.90
39849;DHT22;25518;47.878;15.914;2022-09-20T16:51:30;8.00;99.90
39849;DHT22;25518;47.878;15.914;2022-09-20T16:53:57;8.00;99.90
39849;DHT22;25518;47.878;15.914;2022-09-20T16:56:28;7.90;99.90
39849;DHT22;25518;47.878;15.914;2022-09-20T16:58:55;7.90;99.90
39849;DHT22;25518;47.878;15.914;2022-09-20T17:01:21;7.90;99.90
39849;DHT22;25518;47.878;15.914;2022-09-20T17:03:48;7.90;99.90
39849;DHT22;25518;47.878;15.914;2022-09-20T17:06:15;7.90;99.90
39849;DHT22;25518;47.878;15.914;2022-09-20T17:08:42;7.90;99.90
39849;DHT22;25518;47.878;15.914;2022-09-20T17:11:15;7.90;99.90
39849;DHT22;25518;47.878;15.914;2022-09-20T17:13:44;7.90;99.90
39849;DHT22;25518;47.878;15.914;2022-09-20T17:16:14;7.80;99.90
39849;DHT22;25518;47.878;15.914;2022-09-20T17:18:42;7.80;99.90
39849;DHT22;25518;47.878;15.914;2022-09-20T17:21:12;7.90;99.90
39849;DHT22;25518;47.878;15.914;2022-09-20T17:23:41;7.90;99.90
39849;DHT22;25518;47.878;15.914;2022-09-20T17:26:12;8.00;99.90
39849;DHT22;25518;47.878;15.914;2022-09-20T17:28:42;7.90;99.90
39849;DHT22;25518;47.878;15.914;2022-09-20T17:31:11;7.90;99.90
39849;DHT22;25518;47.878;15.914;2022-09-20T17:33:38;7.80;99.90
39849;DHT22;25518;47.878;15.914;2022-09-20T17:36:05;7.70;99.90
39849;DHT22;25518;47.878;15.914;2022-09-20T17:38:33;7.60;99.90
39849;DHT22;25518;47.878;15.914;2022-09-20T17:41:00;7.60;99.90
39849;DHT22;25518;47.878;15.914;2022-09-20T17:43:28;7.50;99.90
39849;DHT22;25518;47.878;15.914;2022-09-20T17:46:04;7.40;99.90
39849;DHT22;25518;47.878;15.914;2022-09-20T17:48:31;7.50;99.90
39849;DHT22;25518;47.878;15.914;2022-09-20T17:50:59;7.40;99.90
39849;DHT22;25518;47.878;15.914;2022-09-20T17:53:27;7.30;99.90
39849;DHT22;25518;47.878;15.914;2022-09-20T17:55:55;7.20;99.90
39849;DHT22;25518;47.878;15.914;2022-09-20T17:58:22;7.20;99.90
39849;DHT22;25518;47.878;15.914;2022-09-20T18:00:49;7.20;99.90
39849;DHT22;25518;47.878;15.914;2022-09-20T18:03:16;7.20;99.90
39849;DHT22;25518;47.878;15.914;2022-09-20T18:05:42;7.10;99.90
39849;DHT22;25518;47.878;15.914;2022-09-20T18:08:08;7.10;99.90
39849;DHT22;25518;47.878;15.914;2022-09-20T18:10:34;7.00;99.90
39849;DHT22;25518;47.878;15.914;2022-09-20T18:13:00;7.10;99.90
39849;DHT22;25518;47.878;15.914;2022-09-20T18:15:26;7.00;99.90
39849;DHT22;25518;47.878;15.914;2022-09-20T18:17:52;7.10;99.90
39849;DHT22;25518;47.878;15.914;2022-09-20T18:20:18;7.20;99.90
39849;DHT22;25518;47.878;15.914;2022-09-20T18:22:47;7.20;99.90
39849;DHT22;25518;47.878;15.914;2022-09-20T18:25:13;7.20;99.90
39849;DHT22;25518;47.878;15.914;2022-09-20T18:27:39;7.30;99.90
39849;DHT22;25518;47.878;15.914;2022-09-20T18:30:06;7.30;99.90
39849;DHT22;25518;47.878;15.914;2022-09-20T18:32:33;7.30;99.90
39849;DHT22;25518;47.878;15.914;2022-09-20T18:34:59;7.40;99.90
39849;DHT22;25518;47.878;15.914;2022-09-20T18:37:25;7.40;99.90
39849;DHT22;25518;47.878;15.914;2022-09-20T18:39:51;7.30;99.90
39849;DHT22;25518;47.878;15.914;2022-09-20T18:42:17;7.30;99.90
39849;DHT22;25518;47.878;15.914;2022-09-20T18:44:43;7.10;99.90
39849;DHT22;25518;47.878;15.914;2022-09-20T18:47:10;7.00;99.90
39849;DHT22;25518;47.878;15.914;2022-09-20T18:49:36;7.00;99.90
39849;DHT22;25518;47.878;15.914;2022-09-20T18:52:03;7.00;99.90
39849;DHT22;25518;47.878;15.914;2022-09-20T18:54:30;7.00;99.90
39849;DHT22;25518;47.878;15.914;2022-09-20T18:56:58;7.00;99.90
39849;DHT22;25518;47.878;15.914;2022-09-20T18:59:26;7.10;99.90
39849;DHT22;25518;47.878;15.914;2022-09-20T19:05:06;7.00;99.90
39849;DHT22;25518;47.878;15.914;2022-09-20T19:09:56;7.00;99.90
39849;DHT22;25518;47.878;15.914;2022-09-20T19:18:11;6.80;99.90
39849;DHT22;25518;47.878;15.914;2022-09-20T19:20:53;6.70;99.90
39849;DHT22;25518;47.878;15.914;2022-09-20T19:26:24;6.80;99.90
39849;DHT22;25518;47.878;15.914;2022-09-20T19:28:54;6.80;99.90
39849;DHT22;25518;47.878;15.914;2022-09-20T19:31:22;6.80;99.90
39849;DHT22;25518;47.878;15.914;2022-09-20T19:33:50;6.70;99.90
39849;DHT22;25518;47.878;15.914;2022-09-20T19:36:21;6.70;99.90
39849;DHT22;25518;47.878;15.914;2022-09-20T19:39:32;6.80;99.90
39849;DHT22;25518;47.878;15.914;2022-09-20T19:42:04;6.80;99.90
39849;DHT22;25518;47.878;15.914;2022-09-20T19:49:52;6.80;99.90
39849;DHT22;25518;47.878;15.914;2022-09-20T19:52:21;6.80;99.90
39849;DHT22;25518;47.878;15.914;2022-09-20T19:54:48;6.90;99.90
39849;DHT22;25518;47.878;15.914;2022-09-20T19:57:19;6.90;99.90
39849;DHT22;25518;47.878;15.914;2022-09-20T19:59:46;6.70;99.90
39849;DHT22;25518;47.878;15.914;2022-09-20T20:02:14;6.70;99.90
39849;DHT22;25518;47.878;15.914;2022-09-20T20:04:40;6.70;99.90
39849;DHT22;25518;47.878;15.914;2022-09-20T20:07:28;6.70;99.90
39849;DHT22;25518;47.878;15.914;2022-09-20T20:12:49;6.60;99.90
39849;DHT22;25518;47.878;15.914;2022-09-20T20:15:36;6.60;99.90
39849;DHT22;25518;47.878;15.914;2022-09-20T20:18:40;6.50;99.90
39849;DHT22;25518;47.878;15.914;2022-09-20T20:20:55;6.40;99.90
39849;DHT22;25518;47.878;15.914;2022-09-20T20:26:27;6.60;99.90
39849;DHT22;25518;47.878;15.914;2022-09-20T20:28:42;6.70;99.90
39849;DHT22;25518;47.878;15.914;2022-09-20T20:31:09;6.80;99.90
39849;DHT22;25518;47.878;15.914;2022-09-20T20:33:37;6.80;99.90
39849;DHT22;25518;47.878;15.914;2022-09-20T20:36:04;6.80;99.90
39849;DHT22;25518;47.878;15.914;2022-09-20T20:38:34;6.90;99.90
39849;DHT22;25518;47.878;15.914;2022-09-20T20:41:06;6.90;99.90
39849;DHT22;25518;47.878;15.914;2022-09-20T20:43:35;7.00;99.90
39849;DHT22;25518;47.878;15.914;2022-09-20T20:46:05;6.90;99.90
39849;DHT22;25518;47.878;15.914;2022-09-20T20:48:31;7.00;99.90
39849;DHT22;25518;47.878;15.914;2022-09-20T20:51:00;7.00;99.90
39849;DHT22;25518;47.878;15.914;2022-09-20T20:53:31;6.90;99.90
39849;DHT22;25518;47.878;15.914;2022-09-20T20:56:01;7.00;99.90
39849;DHT22;25518;47.878;15.914;2022-09-20T20:58:29;7.00;99.90
39849;DHT22;25518;47.878;15.914;2022-09-20T21:01:19;6.90;99.90
39849;DHT22;25518;47.878;15.914;2022-09-20T21:03:48;7.00;99.90
39849;DHT22;25518;47.878;15.914;2022-09-20T21:06:15;7.10;99.90
39849;DHT22;25518;47.878;15.914;2022-09-20T21:08:43;7.00;99.90
39849;DHT22;25518;47.878;15.914;2022-09-20T21:11:12;7.00;99.90
39849;DHT22;25518;47.878;15.914;2022-09-20T21:13:39;7.00;99.90
39849;DHT22;25518;47.878;15.914;2022-09-20T21:16:06;7.00;99.90
39849;DHT22;25518;47.878;15.914;2022-09-20T21:18:34;7.00;99.90
39849;DHT22;25518;47.878;15.914;2022-09-20T21:21:02;7.10;99.90
39849;DHT22;25518;47.878;15.914;2022-09-20T21:23:32;7.10;99.90
39849;DHT22;25518;47.878;15.914;2022-09-20T21:26:01;7.20;99.90
39849;DHT22;25518;47.878;15.914;2022-09-20T21:28:33;7.30;99.90
39849;DHT22;25518;47.878;15.914;2022-09-20T21:31:00;7.30;99.90
39849;DHT22;25518;47.878;15.914;2022-09-20T21:33:29;7.30;99.90
39849;DHT22;25518;47.878;15.914;2022-09-20T21:35:58;7.40;99.90
39849;DHT22;25518;47.878;15.914;2022-09-20T21:38:26;7.40;99.90
39849;DHT22;25518;47.878;15.914;2022-09-20T21:43:38;7.50;99.90
39849;DHT22;25518;47.878;15.914;2022-09-20T21:46:12;7.60;99.90
39849;DHT22;25518;47.878;15.914;2022-09-20T21:48:39;7.70;99.90
39849;DHT22;25518;47.878;15.914;2022-09-20T21:51:07;7.80;99.90
39849;DHT22;25518;47.878;15.914;2022-09-20T21:53:35;7.70;99.90
39849;DHT22;25518;47.878;15.914;2022-09-20T21:56:05;7.60;99.90
39849;DHT22;25518;47.878;15.914;2022-09-20T21:58:32;7.70;99.90
39849;DHT22;25518;47.878;15.914;2022-09-20T22:01:03;7.80;99.90
39849;DHT22;25518;47.878;15.914;2022-09-20T22:03:33;7.80;99.90
39849;DHT22;25518;47.878;15.914;2022-09-20T22:06:05;7.80;99.90
39849;DHT22;25518;47.878;15.914;2022-09-20T22:08:35;7.60;99.90
39849;DHT22;25518;47.878;15.914;2022-09-20T22:11:02;7.70;99.90
39849;DHT22;25518;47.878;15.914;2022-09-20T22:13:29;7.70;99.90
39849;DHT22;25518;47.878;15.914;2022-09-20T22:16:03;7.60;99.90
39849;DHT22;25518;47.878;15.914;2022-09-20T22:18:33;7.70;99.90
39849;DHT22;25518;47.878;15.914;2022-09-20T22:21:02;7.60;99.90
39849;DHT22;25518;47.878;15.914;2022-09-20T22:23:28;7.60;99.90
39849;DHT22;25518;47.878;15.914;2022-09-20T22:26:00;7.70;99.90
39849;DHT22;25518;47.878;15.914;2022-09-20T22:28:27;7.80;99.90
39849;DHT22;25518;47.878;15.914;2022-09-20T22:30:53;7.80;99.90
39849;DHT22;25518;47.878;15.914;2022-09-20T22:33:19;7.90;99.90
39849;DHT22;25518;47.878;15.914;2022-09-20T22:35:45;7.80;99.90
39849;DHT22;25518;47.878;15.914;2022-09-20T22:38:11;7.80;99.90
39849;DHT22;25518;47.878;15.914;2022-09-20T22:40:37;7.80;99.90
39849;DHT22;25518;47.878;15.914;2022-09-20T22:43:03;7.70;99.90
39849;DHT22;25518;47.878;15.914;2022-09-20T22:45:30;7.70;99.90
39849;DHT22;25518;47.878;15.914;2022-09-20T22:47:56;7.90;99.90
39849;DHT22;25518;47.878;15.914;2022-09-20T22:50:22;8.00;99.90
39849;DHT22;25518;47.878;15.914;2022-09-20T22:52:48;8.00;99.90
39849;DHT22;25518;47.878;15.914;2022-09-20T22:55:14;8.00;99.90
39849;DHT22;25518;47.878;15.914;2022-09-20T22:57:40;8.00;99.90
39849;DHT22;25518;47.878;15.914;2022-09-20T23:00:07;8.00;99.90
39849;DHT22;25518;47.878;15.914;2022-09-20T23:02:33;7.90;99.90
39849;DHT22;25518;47.878;15.914;2022-09-20T23:04:59;7.80;99.90
39849;DHT22;25518;47.878;15.914;2022-09-20T23:07:25;7.80;99.90
39849;DHT22;25518;47.878;15.914;2022-09-20T23:09:51;8.00;99.90
39849;DHT22;25518;47.878;15.914;2022-09-20T23:12:17;8.10;99.90
39849;DHT22;25518;47.878;15.914;2022-09-20T23:14:43;8.10;99.90
39849;DHT22;25518;47.878;15.914;2022-09-20T23:17:09;8.20;99.90
39849;DHT22;25518;47.878;15.914;2022-09-20T23:19:35;8.10;99.90
39849;DHT22;25518;47.878;15.914;2022-09-20T23:22:01;8.00;99.90
39849;DHT22;25518;47.878;15.914;2022-09-20T23:24:26;8.00;99.90
39849;DHT22;25518;47.878;15.914;2022-09-20T23:26:52;8.00;99.90
39849;DHT22;25518;47.878;15.914;2022-09-20T23:29:18;8.10;99.90
39849;DHT22;25518;47.878;15.914;2022-09-20T23:31:45;8.00;99.90
39849;DHT22;25518;47.878;15.914;2022-09-20T23:34:13;8.10;99.90
39849;DHT22;25518;47.878;15.914;2022-09-20T23:36:40;8.10;99.90
39849;DHT22;25518;47.878;15.914;2022-09-20T23:39:08;8.10;99.90
39849;DHT22;25518;47.878;15.914;2022-09-20T23:41:35;8.20;99.90
39849;DHT22;25518;47.878;15.914;2022-09-20T23:44:02;8.20;99.90
39849;DHT22;25518;47.878;15.914;2022-09-20T23:46:31;8.20;99.90
39849;DHT22;25518;47.878;15.914;2022-09-20T23:48:58;8.20;99.90
39849;DHT22;25518;47.878;15.914;2022-09-20T23:51:25;8.10;99.90
39849;DHT22;25518;47.878;15.914;2022-09-20T23:53:52;8.10;99.90
39849;DHT22;25518;47.878;15.914;2022-09-20T23:56:19;8.10;99.90
39849;DHT22;25518;47.878;15.914;2022-09-20T23:58:46;8.00;99.90
